sensor_id;sensor_type;location;lat;lon;timestamp;temperature;humidity
25302;DHT22;13243;50.888;4.724;2023-02-26T00:01:19;1.80;99.90
25302;DHT22;13243;50.888;4.724;2023-02-26T00:06:23;1.50;99.90
25302;DHT22;13243;50.888;4.724;2023-02-26T00:11:26;1.40;99.90
25302;DHT22;13243;50.888;4.724;2023-02-26T00:16:35;1.30;99.90
25302;DHT22;13243;50.888;4.724;2023-02-26T00:21:37;1.20;99.90
25302;DHT22;13243;50.888;4.724;2023-02-26T00:26:39;1.20;99.90
25302;DHT22;13243;50.888;4.724;2023-02-26T00:31:41;1.20;99.90
25302;DHT22;13243;50.888;4.724;2023-02-26T00:42:04;1.10;99.90
25302;DHT22;13243;50.888;4.724;2023-02-26T00:52:19;1.00;99.90
25302;DHT22;13243;50.888;4.724;2023-02-26T00:57:25;0.90;99.90
25302;DHT22;13243;50.888;4.724;2023-02-26T01:02:27;0.90;99.90
25302;DHT22;13243;50.888;4.724;2023-02-26T01:07:30;1.00;99.90
25302;DHT22;13243;50.888;4.724;2023-02-26T01:12:33;0.90;99.90
25302;DHT22;13243;50.888;4.724;2023-02-26T01:22:56;0.70;99.90
25302;DHT22;13243;50.888;4.724;2023-02-26T01:28:00;0.90;99.90
25302;DHT22;13243;50.888;4.724;2023-02-26T01:33:09;1.10;99.90
25302;DHT22;13243;50.888;4.724;2023-02-26T01:48:57;0.90;99.90
25302;DHT22;13243;50.888;4.724;2023-02-26T01:53:59;0.90;99.90
25302;DHT22;13243;50.888;4.724;2023-02-26T01:59:06;0.90;99.90
25302;DHT22;13243;50.888;4.724;2023-02-26T02:04:12;0.90;99.90
25302;DHT22;13243;50.888;4.724;2023-02-26T02:09:15;0.90;99.90
25302;DHT22;13243;50.888;4.724;2023-02-26T02:14:30;1.10;99.90
25302;DHT22;13243;50.888;4.724;2023-02-26T02:30:34;1.30;99.90
25302;DHT22;13243;50.888;4.724;2023-02-26T02:35:43;1.20;99.90
25302;DHT22;13243;50.888;4.724;2023-02-26T02:40:51;1.20;99.90
25302;DHT22;13243;50.888;4.724;2023-02-26T02:46:02;1.10;99.90
25302;DHT22;13243;50.888;4.724;2023-02-26T02:51:22;1.10;99.90
25302;DHT22;13243;50.888;4.724;2023-02-26T02:56:33;1.10;99.90
25302;DHT22;13243;50.888;4.724;2023-02-26T03:01:38;1.20;99.90
25302;DHT22;13243;50.888;4.724;2023-02-26T03:06:42;1.00;99.90
25302;DHT22;13243;50.888;4.724;2023-02-26T03:11:45;0.90;99.90
25302;DHT22;13243;50.888;4.724;2023-02-26T03:17:25;0.90;99.90
25302;DHT22;13243;50.888;4.724;2023-02-26T03:38:02;0.80;99.90
25302;DHT22;13243;50.888;4.724;2023-02-26T03:43:12;0.80;99.90
25302;DHT22;13243;50.888;4.724;2023-02-26T03:48:20;0.70;99.90
25302;DHT22;13243;50.888;4.724;2023-02-26T03:53:38;0.60;99.90
25302;DHT22;13243;50.888;4.724;2023-02-26T03:58:40;0.50;99.90
25302;DHT22;13243;50.888;4.724;2023-02-26T04:04:05;0.60;99.90
25302;DHT22;13243;50.888;4.724;2023-02-26T04:09:07;0.70;99.90
25302;DHT22;13243;50.888;4.724;2023-02-26T04:14:09;0.70;99.90
25302;DHT22;13243;50.888;4.724;2023-02-26T04:19:11;0.60;99.90
25302;DHT22;13243;50.888;4.724;2023-02-26T04:24:14;0.60;99.90
25302;DHT22;13243;50.888;4.724;2023-02-26T04:29:16;0.60;99.90
25302;DHT22;13243;50.888;4.724;2023-02-26T04:34:17;0.50;99.90
25302;DHT22;13243;50.888;4.724;2023-02-26T04:39:19;0.50;99.90
25302;DHT22;13243;50.888;4.724;2023-02-26T04:44:21;0.60;99.90
25302;DHT22;13243;50.888;4.724;2023-02-26T04:49:23;0.50;99.90
25302;DHT22;13243;50.888;4.724;2023-02-26T04:54:25;0.50;99.90
25302;DHT22;13243;50.888;4.724;2023-02-26T04:59:27;0.30;99.90
25302;DHT22;13243;50.888;4.724;2023-02-26T05:04:29;0.30;99.90
25302;DHT22;13243;50.888;4.724;2023-02-26T05:09:31;0.30;99.90
25302;DHT22;13243;50.888;4.724;2023-02-26T05:14:33;0.40;99.90
25302;DHT22;13243;50.888;4.724;2023-02-26T05:19:35;0.30;99.90
25302;DHT22;13243;50.888;4.724;2023-02-26T05:24:37;0.40;99.90
25302;DHT22;13243;50.888;4.724;2023-02-26T05:29:39;0.30;99.90
25302;DHT22;13243;50.888;4.724;2023-02-26T05:34:42;0.30;99.90
25302;DHT22;13243;50.888;4.724;2023-02-26T05:39:44;0.30;99.90
25302;DHT22;13243;50.888;4.724;2023-02-26T05:44:46;0.20;99.90
25302;DHT22;13243;50.888;4.724;2023-02-26T05:49:48;0.20;99.90
25302;DHT22;13243;50.888;4.724;2023-02-26T05:54:50;0.20;99.90
25302;DHT22;13243;50.888;4.724;2023-02-26T05:59:52;0.20;99.90
25302;DHT22;13243;50.888;4.724;2023-02-26T06:04:54;0.20;99.90
25302;DHT22;13243;50.888;4.724;2023-02-26T06:09:56;0.20;99.90
25302;DHT22;13243;50.888;4.724;2023-02-26T06:14:58;0.10;99.90
25302;DHT22;13243;50.888;4.724;2023-02-26T06:20:00;0.20;99.90
25302;DHT22;13243;50.888;4.724;2023-02-26T06:25:03;0.20;99.90
25302;DHT22;13243;50.888;4.724;2023-02-26T06:30:06;0.10;99.90
25302;DHT22;13243;50.888;4.724;2023-02-26T06:35:08;0.10;99.90
25302;DHT22;13243;50.888;4.724;2023-02-26T06:40:10;0.10;99.90
25302;DHT22;13243;50.888;4.724;2023-02-26T06:45:13;0.10;99.90
25302;DHT22;13243;50.888;4.724;2023-02-26T06:50:15;0.00;99.90
25302;DHT22;13243;50.888;4.724;2023-02-26T06:55:17;0.00;99.90
25302;DHT22;13243;50.888;4.724;2023-02-26T07:00:19;0.20;99.90
25302;DHT22;13243;50.888;4.724;2023-02-26T07:05:21;0.10;99.90
25302;DHT22;13243;50.888;4.724;2023-02-26T07:10:23;0.10;99.90
25302;DHT22;13243;50.888;4.724;2023-02-26T07:15:26;0.10;99.90
25302;DHT22;13243;50.888;4.724;2023-02-26T07:20:27;0.10;99.90
25302;DHT22;13243;50.888;4.724;2023-02-26T07:25:30;0.30;99.90
25302;DHT22;13243;50.888;4.724;2023-02-26T07:30:32;0.20;99.90
25302;DHT22;13243;50.888;4.724;2023-02-26T07:35:35;0.10;99.90
25302;DHT22;13243;50.888;4.724;2023-02-26T07:40:37;0.30;99.90
25302;DHT22;13243;50.888;4.724;2023-02-26T07:45:38;0.40;99.90
25302;DHT22;13243;50.888;4.724;2023-02-26T07:50:40;0.60;99.90
25302;DHT22;13243;50.888;4.724;2023-02-26T07:55:42;0.70;99.90
25302;DHT22;13243;50.888;4.724;2023-02-26T08:00:44;0.90;99.90
25302;DHT22;13243;50.888;4.724;2023-02-26T08:05:46;0.90;99.90
25302;DHT22;13243;50.888;4.724;2023-02-26T08:10:47;0.90;99.90
25302;DHT22;13243;50.888;4.724;2023-02-26T08:15:50;1.10;99.90
25302;DHT22;13243;50.888;4.724;2023-02-26T08:20:52;1.40;99.90
25302;DHT22;13243;50.888;4.724;2023-02-26T08:26:01;1.30;99.90
25302;DHT22;13243;50.888;4.724;2023-02-26T08:31:03;1.60;99.90
25302;DHT22;13243;50.888;4.724;2023-02-26T08:36:06;1.70;99.90
25302;DHT22;13243;50.888;4.724;2023-02-26T08:41:08;1.80;99.90
25302;DHT22;13243;50.888;4.724;2023-02-26T08:46:10;2.00;99.90
25302;DHT22;13243;50.888;4.724;2023-02-26T08:51:12;2.00;99.90
25302;DHT22;13243;50.888;4.724;2023-02-26T08:56:13;2.20;99.90
25302;DHT22;13243;50.888;4.724;2023-02-26T09:01:15;2.30;99.90
25302;DHT22;13243;50.888;4.724;2023-02-26T09:06:17;2.50;99.90
25302;DHT22;13243;50.888;4.724;2023-02-26T09:11:19;2.50;99.90
25302;DHT22;13243;50.888;4.724;2023-02-26T09:16:20;2.50;99.90
25302;DHT22;13243;50.888;4.724;2023-02-26T09:21:23;2.50;99.90
25302;DHT22;13243;50.888;4.724;2023-02-26T09:26:25;2.70;99.90
25302;DHT22;13243;50.888;4.724;2023-02-26T09:31:27;2.80;99.90
25302;DHT22;13243;50.888;4.724;2023-02-26T09:36:29;3.00;99.90
25302;DHT22;13243;50.888;4.724;2023-02-26T09:41:37;3.00;99.90
25302;DHT22;13243;50.888;4.724;2023-02-26T09:47:21;2.90;99.90
25302;DHT22;13243;50.888;4.724;2023-02-26T09:52:37;3.20;99.90
25302;DHT22;13243;50.888;4.724;2023-02-26T09:57:43;3.60;99.90
25302;DHT22;13243;50.888;4.724;2023-02-26T10:08:06;3.40;99.90
25302;DHT22;13243;50.888;4.724;2023-02-26T10:14:23;3.80;99.90
25302;DHT22;13243;50.888;4.724;2023-02-26T10:19:08;3.80;99.90
25302;DHT22;13243;50.888;4.724;2023-02-26T10:24:36;3.90;99.90
25302;DHT22;13243;50.888;4.724;2023-02-26T10:35:14;4.00;99.90
25302;DHT22;13243;50.888;4.724;2023-02-26T10:50:52;3.90;99.90
25302;DHT22;13243;50.888;4.724;2023-02-26T10:56:08;4.00;99.90
25302;DHT22;13243;50.888;4.724;2023-02-26T11:01:20;3.50;99.90
25302;DHT22;13243;50.888;4.724;2023-02-26T11:06:27;3.30;99.90
25302;DHT22;13243;50.888;4.724;2023-02-26T11:16:56;4.10;99.90
25302;DHT22;13243;50.888;4.724;2023-02-26T11:22:00;4.70;99.90
25302;DHT22;13243;50.888;4.724;2023-02-26T11:27:05;4.60;99.90
25302;DHT22;13243;50.888;4.724;2023-02-26T11:32:17;5.10;99.90
25302;DHT22;13243;50.888;4.724;2023-02-26T11:37:22;5.20;99.90
25302;DHT22;13243;50.888;4.724;2023-02-26T11:42:25;5.60;99.90
25302;DHT22;13243;50.888;4.724;2023-02-26T11:47:30;5.90;99.90
25302;DHT22;13243;50.888;4.724;2023-02-26T11:52:34;6.30;99.90
25302;DHT22;13243;50.888;4.724;2023-02-26T11:57:41;6.60;99.90
25302;DHT22;13243;50.888;4.724;2023-02-26T12:02:43;6.70;99.90
25302;DHT22;13243;50.888;4.724;2023-02-26T12:07:45;7.20;99.90
25302;DHT22;13243;50.888;4.724;2023-02-26T12:13:21;6.20;99.90
25302;DHT22;13243;50.888;4.724;2023-02-26T12:18:38;5.10;99.90
25302;DHT22;13243;50.888;4.724;2023-02-26T12:56:03;5.10;99.90
25302;DHT22;13243;50.888;4.724;2023-02-26T13:01:32;5.70;99.90
25302;DHT22;13243;50.888;4.724;2023-02-26T13:07:00;6.40;99.90
25302;DHT22;13243;50.888;4.724;2023-02-26T13:17:42;6.40;99.90
25302;DHT22;13243;50.888;4.724;2023-02-26T13:22:49;5.80;99.90
25302;DHT22;13243;50.888;4.724;2023-02-26T13:27:53;6.60;99.90
25302;DHT22;13243;50.888;4.724;2023-02-26T13:32:58;6.70;99.90
25302;DHT22;13243;50.888;4.724;2023-02-26T13:38:03;7.30;99.90
25302;DHT22;13243;50.888;4.724;2023-02-26T13:48:56;6.20;99.90
25302;DHT22;13243;50.888;4.724;2023-02-26T14:14:33;8.00;99.90
25302;DHT22;13243;50.888;4.724;2023-02-26T14:19:44;8.10;99.90
25302;DHT22;13243;50.888;4.724;2023-02-26T14:25:46;8.30;99.90
25302;DHT22;13243;50.888;4.724;2023-02-26T14:30:51;8.80;99.90
25302;DHT22;13243;50.888;4.724;2023-02-26T14:35:54;8.00;99.90
25302;DHT22;13243;50.888;4.724;2023-02-26T14:46:04;9.20;99.90
25302;DHT22;13243;50.888;4.724;2023-02-26T14:56:51;9.10;99.90
25302;DHT22;13243;50.888;4.724;2023-02-26T15:02:38;9.70;99.90
25302;DHT22;13243;50.888;4.724;2023-02-26T15:13:35;9.50;99.90
25302;DHT22;13243;50.888;4.724;2023-02-26T15:18:54;9.30;99.90
25302;DHT22;13243;50.888;4.724;2023-02-26T15:23:58;9.10;99.90
25302;DHT22;13243;50.888;4.724;2023-02-26T15:29:06;10.20;99.90
25302;DHT22;13243;50.888;4.724;2023-02-26T15:34:13;9.80;99.90
25302;DHT22;13243;50.888;4.724;2023-02-26T15:39:17;10.10;99.90
25302;DHT22;13243;50.888;4.724;2023-02-26T15:44:37;9.70;99.90
25302;DHT22;13243;50.888;4.724;2023-02-26T15:49:56;10.80;99.90
25302;DHT22;13243;50.888;4.724;2023-02-26T15:55:03;10.40;99.90
25302;DHT22;13243;50.888;4.724;2023-02-26T16:00:09;11.20;99.90
25302;DHT22;13243;50.888;4.724;2023-02-26T16:05:12;11.60;99.90
25302;DHT22;13243;50.888;4.724;2023-02-26T16:10:32;11.40;99.90
25302;DHT22;13243;50.888;4.724;2023-02-26T16:15:37;12.00;99.90
25302;DHT22;13243;50.888;4.724;2023-02-26T16:20:44;12.00;99.90
25302;DHT22;13243;50.888;4.724;2023-02-26T16:30:54;11.10;99.90
25302;DHT22;13243;50.888;4.724;2023-02-26T16:36:31;10.30;99.90
25302;DHT22;13243;50.888;4.724;2023-02-26T16:41:37;9.90;99.90
25302;DHT22;13243;50.888;4.724;2023-02-26T16:46:43;9.90;99.90
25302;DHT22;13243;50.888;4.724;2023-02-26T16:51:46;9.60;99.90
25302;DHT22;13243;50.888;4.724;2023-02-26T16:56:59;8.00;99.90
25302;DHT22;13243;50.888;4.724;2023-02-26T17:02:10;7.40;99.90
25302;DHT22;13243;50.888;4.724;2023-02-26T17:07:26;7.20;99.90
25302;DHT22;13243;50.888;4.724;2023-02-26T17:12:41;7.10;99.90
25302;DHT22;13243;50.888;4.724;2023-02-26T17:17:44;6.90;99.90
25302;DHT22;13243;50.888;4.724;2023-02-26T17:22:47;6.50;99.90
25302;DHT22;13243;50.888;4.724;2023-02-26T17:27:50;6.60;99.90
25302;DHT22;13243;50.888;4.724;2023-02-26T17:32:52;6.40;99.90
25302;DHT22;13243;50.888;4.724;2023-02-26T17:37:54;6.20;99.90
25302;DHT22;13243;50.888;4.724;2023-02-26T17:42:56;6.00;99.90
25302;DHT22;13243;50.888;4.724;2023-02-26T17:47:58;5.80;99.90
25302;DHT22;13243;50.888;4.724;2023-02-26T17:53:00;5.90;99.90
25302;DHT22;13243;50.888;4.724;2023-02-26T17:58:02;5.70;99.90
25302;DHT22;13243;50.888;4.724;2023-02-26T18:03:04;5.50;99.90
25302;DHT22;13243;50.888;4.724;2023-02-26T18:08:28;5.20;99.90
25302;DHT22;13243;50.888;4.724;2023-02-26T18:13:30;5.00;99.90
25302;DHT22;13243;50.888;4.724;2023-02-26T18:18:32;4.90;99.90
25302;DHT22;13243;50.888;4.724;2023-02-26T18:23:34;4.80;99.90
25302;DHT22;13243;50.888;4.724;2023-02-26T18:28:36;4.70;99.90
25302;DHT22;13243;50.888;4.724;2023-02-26T18:33:38;4.60;99.90
25302;DHT22;13243;50.888;4.724;2023-02-26T18:38:42;4.40;99.90
25302;DHT22;13243;50.888;4.724;2023-02-26T18:43:43;4.30;99.90
25302;DHT22;13243;50.888;4.724;2023-02-26T18:48:45;4.40;99.90
25302;DHT22;13243;50.888;4.724;2023-02-26T18:53:47;4.20;99.90
25302;DHT22;13243;50.888;4.724;2023-02-26T18:58:49;4.20;99.90
25302;DHT22;13243;50.888;4.724;2023-02-26T19:03:51;4.00;99.90
25302;DHT22;13243;50.888;4.724;2023-02-26T19:08:53;4.00;99.90
25302;DHT22;13243;50.888;4.724;2023-02-26T19:13:56;4.00;99.90
25302;DHT22;13243;50.888;4.724;2023-02-26T19:18:58;3.70;99.90
25302;DHT22;13243;50.888;4.724;2023-02-26T19:24:02;3.60;99.90
25302;DHT22;13243;50.888;4.724;2023-02-26T19:29:09;3.50;99.90
25302;DHT22;13243;50.888;4.724;2023-02-26T19:34:12;3.60;99.90
25302;DHT22;13243;50.888;4.724;2023-02-26T19:39:18;3.50;99.90
25302;DHT22;13243;50.888;4.724;2023-02-26T19:44:21;3.40;99.90
25302;DHT22;13243;50.888;4.724;2023-02-26T19:49:23;3.20;99.90
25302;DHT22;13243;50.888;4.724;2023-02-26T19:54:25;3.10;99.90
25302;DHT22;13243;50.888;4.724;2023-02-26T19:59:27;3.30;99.90
25302;DHT22;13243;50.888;4.724;2023-02-26T20:04:30;3.40;99.90
25302;DHT22;13243;50.888;4.724;2023-02-26T20:09:32;3.00;99.90
25302;DHT22;13243;50.888;4.724;2023-02-26T20:14:34;2.80;99.90
25302;DHT22;13243;50.888;4.724;2023-02-26T20:19:37;2.60;99.90
25302;DHT22;13243;50.888;4.724;2023-02-26T20:24:39;2.60;99.90
25302;DHT22;13243;50.888;4.724;2023-02-26T20:29:41;2.60;99.90
25302;DHT22;13243;50.888;4.724;2023-02-26T20:34:43;2.70;99.90
25302;DHT22;13243;50.888;4.724;2023-02-26T20:39:45;2.60;99.90
25302;DHT22;13243;50.888;4.724;2023-02-26T20:44:47;2.50;99.90
25302;DHT22;13243;50.888;4.724;2023-02-26T20:49:49;2.50;99.90
25302;DHT22;13243;50.888;4.724;2023-02-26T20:54:50;2.50;99.90
25302;DHT22;13243;50.888;4.724;2023-02-26T20:59:52;2.40;99.90
25302;DHT22;13243;50.888;4.724;2023-02-26T21:04:54;2.60;99.90
25302;DHT22;13243;50.888;4.724;2023-02-26T21:09:56;2.80;99.90
25302;DHT22;13243;50.888;4.724;2023-02-26T21:14:59;2.70;99.90
25302;DHT22;13243;50.888;4.724;2023-02-26T21:20:01;2.60;99.90
25302;DHT22;13243;50.888;4.724;2023-02-26T21:25:04;2.40;99.90
25302;DHT22;13243;50.888;4.724;2023-02-26T21:30:08;2.40;99.90
25302;DHT22;13243;50.888;4.724;2023-02-26T21:35:11;2.50;99.90
25302;DHT22;13243;50.888;4.724;2023-02-26T21:40:16;2.50;99.90
25302;DHT22;13243;50.888;4.724;2023-02-26T21:45:18;2.60;99.90
25302;DHT22;13243;50.888;4.724;2023-02-26T21:50:20;2.50;99.90
25302;DHT22;13243;50.888;4.724;2023-02-26T21:55:22;2.30;99.90
25302;DHT22;13243;50.888;4.724;2023-02-26T22:00:24;2.30;99.90
25302;DHT22;13243;50.888;4.724;2023-02-26T22:05:26;2.20;99.90
25302;DHT22;13243;50.888;4.724;2023-02-26T22:10:28;2.40;99.90
25302;DHT22;13243;50.888;4.724;2023-02-26T22:15:30;2.30;99.90
25302;DHT22;13243;50.888;4.724;2023-02-26T22:20:32;2.20;99.90
25302;DHT22;13243;50.888;4.724;2023-02-26T22:25:34;2.10;99.90
25302;DHT22;13243;50.888;4.724;2023-02-26T22:30:36;2.10;99.90
25302;DHT22;13243;50.888;4.724;2023-02-26T22:35:38;2.10;99.90
25302;DHT22;13243;50.888;4.724;2023-02-26T22:40:40;2.10;99.90
25302;DHT22;13243;50.888;4.724;2023-02-26T22:45:42;2.10;99.90
25302;DHT22;13243;50.888;4.724;2023-02-26T22:50:43;2.10;99.90
25302;DHT22;13243;50.888;4.724;2023-02-26T22:55:45;2.00;99.90
25302;DHT22;13243;50.888;4.724;2023-02-26T23:00:47;2.00;99.90
25302;DHT22;13243;50.888;4.724;2023-02-26T23:05:49;2.00;99.90
25302;DHT22;13243;50.888;4.724;2023-02-26T23:10:58;2.00;99.90
25302;DHT22;13243;50.888;4.724;2023-02-26T23:16:01;1.80;99.90
25302;DHT22;13243;50.888;4.724;2023-02-26T23:21:04;1.90;99.90
25302;DHT22;13243;50.888;4.724;2023-02-26T23:26:07;1.80;99.90
25302;DHT22;13243;50.888;4.724;2023-02-26T23:31:09;1.80;99.90
25302;DHT22;13243;50.888;4.724;2023-02-26T23:36:11;1.60;99.90
25302;DHT22;13243;50.888;4.724;2023-02-26T23:41:13;1.60;99.90
25302;DHT22;13243;50.888;4.724;2023-02-26T23:46:15;1.70;99.90
25302;DHT22;13243;50.888;4.724;2023-02-26T23:51:17;1.60;99.90
25302;DHT22;13243;50.888;4.724;2023-02-26T23:56:19;1.50;99.90
